sensor_id;sensor_type;location;lat;lon;timestamp;pressure;altitude;pressure_sealevel;temperature;humidity
9439;BME280;5176;42.622;25.386;2023-02-28T00:01:35;97756.56;;;11.41;86.15
9439;BME280;5176;42.622;25.386;2023-02-28T00:04:04;97762.72;;;11.26;87.29
9439;BME280;5176;42.622;25.386;2023-02-28T00:06:34;97764.84;;;11.19;88.23
9439;BME280;5176;42.622;25.386;2023-02-28T00:09:03;97774.72;;;11.30;87.60
9439;BME280;5176;42.622;25.386;2023-02-28T00:11:31;97775.84;;;11.26;88.19
9439;BME280;5176;42.622;25.386;2023-02-28T00:14:00;97773.31;;;11.24;88.05
9439;BME280;5176;42.622;25.386;2023-02-28T00:16:29;97777.91;;;11.35;87.75
9439;BME280;5176;42.622;25.386;2023-02-28T00:18:57;97774.47;;;11.34;87.41
9439;BME280;5176;42.622;25.386;2023-02-28T00:21:26;97775.03;;;11.39;87.13
9439;BME280;5176;42.622;25.386;2023-02-28T00:23:56;97773.16;;;11.41;86.77
9439;BME280;5176;42.622;25.386;2023-02-28T00:26:25;97775.66;;;11.29;87.65
9439;BME280;5176;42.622;25.386;2023-02-28T00:28:53;97774.13;;;11.10;89.28
9439;BME280;5176;42.622;25.386;2023-02-28T00:31:22;97772.69;;;11.05;89.95
9439;BME280;5176;42.622;25.386;2023-02-28T00:33:51;97782.03;;;11.09;89.98
9439;BME280;5176;42.622;25.386;2023-02-28T00:36:20;97773.44;;;11.07;90.80
9439;BME280;5176;42.622;25.386;2023-02-28T00:38:48;97769.78;;;11.09;90.15
9439;BME280;5176;42.622;25.386;2023-02-28T00:41:18;97772.00;;;11.01;90.91
9439;BME280;5176;42.622;25.386;2023-02-28T00:43:47;97767.59;;;11.02;91.02
9439;BME280;5176;42.622;25.386;2023-02-28T00:46:16;97773.28;;;10.94;91.33
9439;BME280;5176;42.622;25.386;2023-02-28T00:48:44;97762.53;;;10.99;91.48
9439;BME280;5176;42.622;25.386;2023-02-28T00:51:13;97761.19;;;10.91;91.43
9439;BME280;5176;42.622;25.386;2023-02-28T00:53:42;97663.16;;;10.32;91.74
9439;BME280;5176;42.622;25.386;2023-02-28T00:56:10;97760.13;;;11.10;91.12
9439;BME280;5176;42.622;25.386;2023-02-28T00:58:41;97760.50;;;11.04;90.07
9439;BME280;5176;42.622;25.386;2023-02-28T01:01:10;97775.66;;;10.99;90.69
9439;BME280;5176;42.622;25.386;2023-02-28T01:03:38;97772.84;;;11.02;91.01
9439;BME280;5176;42.622;25.386;2023-02-28T01:06:07;97771.66;;;11.07;90.66
9439;BME280;5176;42.622;25.386;2023-02-28T01:08:36;97768.94;;;11.09;90.43
9439;BME280;5176;42.622;25.386;2023-02-28T01:11:10;97762.78;;;10.94;91.05
9439;BME280;5176;42.622;25.386;2023-02-28T01:13:41;97768.38;;;10.88;91.44
9439;BME280;5176;42.622;25.386;2023-02-28T01:16:09;97770.56;;;10.96;91.50
9439;BME280;5176;42.622;25.386;2023-02-28T01:18:38;97763.72;;;10.93;90.86
9439;BME280;5176;42.622;25.386;2023-02-28T01:21:09;97739.97;;;10.80;90.97
9439;BME280;5176;42.622;25.386;2023-02-28T01:23:38;97754.41;;;10.87;90.73
9439;BME280;5176;42.622;25.386;2023-02-28T01:26:08;97735.13;;;10.88;89.96
9439;BME280;5176;42.622;25.386;2023-02-28T01:28:37;97773.69;;;11.02;90.41
9439;BME280;5176;42.622;25.386;2023-02-28T01:31:08;97784.78;;;11.07;90.31
9439;BME280;5176;42.622;25.386;2023-02-28T01:33:38;97779.28;;;10.96;90.40
9439;BME280;5176;42.622;25.386;2023-02-28T01:36:09;97789.97;;;10.93;91.08
9439;BME280;5176;42.622;25.386;2023-02-28T01:38:39;97773.47;;;10.75;91.30
9439;BME280;5176;42.622;25.386;2023-02-28T01:41:10;97783.44;;;10.69;92.05
9439;BME280;5176;42.622;25.386;2023-02-28T01:43:58;97797.25;;;10.72;92.86
9439;BME280;5176;42.622;25.386;2023-02-28T01:46:32;97794.72;;;10.71;93.05
9439;BME280;5176;42.622;25.386;2023-02-28T01:49:07;97803.25;;;10.74;93.05
9439;BME280;5176;42.622;25.386;2023-02-28T01:51:40;97812.47;;;10.66;93.75
9439;BME280;5176;42.622;25.386;2023-02-28T01:54:16;97827.59;;;10.60;94.77
9439;BME280;5176;42.622;25.386;2023-02-28T01:56:48;97829.72;;;10.54;95.46
9439;BME280;5176;42.622;25.386;2023-02-28T01:59:22;97823.72;;;10.52;96.04
9439;BME280;5176;42.622;25.386;2023-02-28T02:01:54;97826.34;;;10.52;96.88
9439;BME280;5176;42.622;25.386;2023-02-28T02:04:24;97819.13;;;10.55;96.57
9439;BME280;5176;42.622;25.386;2023-02-28T02:06:55;97767.63;;;10.23;96.26
9439;BME280;5176;42.622;25.386;2023-02-28T02:09:24;97818.13;;;10.58;95.92
9439;BME280;5176;42.622;25.386;2023-02-28T02:11:55;97822.03;;;10.51;96.83
9439;BME280;5176;42.622;25.386;2023-02-28T02:14:50;97827.84;;;10.40;97.73
9439;BME280;5176;42.622;25.386;2023-02-28T02:17:28;97817.78;;;10.15;98.51
9439;BME280;5176;42.622;25.386;2023-02-28T02:20:27;97823.00;;;10.15;100.00
9439;BME280;5176;42.622;25.386;2023-02-28T02:23:12;97826.75;;;10.11;100.00
9439;BME280;5176;42.622;25.386;2023-02-28T02:25:53;97841.22;;;10.01;100.00
9439;BME280;5176;42.622;25.386;2023-02-28T02:28:41;97839.47;;;10.01;100.00
9439;BME280;5176;42.622;25.386;2023-02-28T02:31:49;97843.44;;;10.08;100.00
9439;BME280;5176;42.622;25.386;2023-02-28T02:34:36;97827.00;;;9.89;100.00
9439;BME280;5176;42.622;25.386;2023-02-28T02:37:13;97826.94;;;9.91;100.00
9439;BME280;5176;42.622;25.386;2023-02-28T02:39:50;97836.94;;;10.00;100.00
9439;BME280;5176;42.622;25.386;2023-02-28T02:42:27;97837.22;;;10.11;100.00
9439;BME280;5176;42.622;25.386;2023-02-28T02:45:00;97836.53;;;10.07;100.00
9439;BME280;5176;42.622;25.386;2023-02-28T02:47:31;97846.16;;;10.07;100.00
9439;BME280;5176;42.622;25.386;2023-02-28T02:50:05;97836.00;;;10.01;100.00
9439;BME280;5176;42.622;25.386;2023-02-28T02:52:40;97845.00;;;10.13;100.00
9439;BME280;5176;42.622;25.386;2023-02-28T02:55:11;97845.41;;;10.05;100.00
9439;BME280;5176;42.622;25.386;2023-02-28T02:57:45;97855.16;;;10.19;100.00
9439;BME280;5176;42.622;25.386;2023-02-28T03:00:18;97845.59;;;10.18;100.00
9439;BME280;5176;42.622;25.386;2023-02-28T03:02:49;97854.53;;;10.14;100.00
9439;BME280;5176;42.622;25.386;2023-02-28T03:05:25;97863.78;;;10.21;100.00
9439;BME280;5176;42.622;25.386;2023-02-28T03:07:55;97869.94;;;10.37;100.00
9439;BME280;5176;42.622;25.386;2023-02-28T03:10:29;97839.75;;;10.13;100.00
9439;BME280;5176;42.622;25.386;2023-02-28T03:13:12;97878.88;;;10.33;100.00
9439;BME280;5176;42.622;25.386;2023-02-28T03:15:57;97879.06;;;10.13;100.00
9439;BME280;5176;42.622;25.386;2023-02-28T03:18:31;97873.41;;;10.03;100.00
9439;BME280;5176;42.622;25.386;2023-02-28T03:21:08;97870.75;;;10.04;100.00
9439;BME280;5176;42.622;25.386;2023-02-28T03:23:46;97868.88;;;9.89;100.00
9439;BME280;5176;42.622;25.386;2023-02-28T03:26:19;97871.22;;;9.78;100.00
9439;BME280;5176;42.622;25.386;2023-02-28T03:28:54;97869.06;;;9.69;100.00
9439;BME280;5176;42.622;25.386;2023-02-28T03:31:30;97870.38;;;9.77;100.00
9439;BME280;5176;42.622;25.386;2023-02-28T03:34:05;97868.06;;;9.71;100.00
9439;BME280;5176;42.622;25.386;2023-02-28T03:36:39;97878.84;;;9.65;100.00
9439;BME280;5176;42.622;25.386;2023-02-28T03:39:14;97873.19;;;9.55;100.00
9439;BME280;5176;42.622;25.386;2023-02-28T03:41:47;97824.25;;;9.23;100.00
9439;BME280;5176;42.622;25.386;2023-02-28T03:44:22;97880.16;;;9.57;100.00
9439;BME280;5176;42.622;25.386;2023-02-28T03:47:02;97890.84;;;9.52;100.00
9439;BME280;5176;42.622;25.386;2023-02-28T03:49:35;97895.88;;;9.57;100.00
9439;BME280;5176;42.622;25.386;2023-02-28T03:52:07;97896.84;;;9.54;100.00
9439;BME280;5176;42.622;25.386;2023-02-28T03:54:40;97878.56;;;9.35;100.00
9439;BME280;5176;42.622;25.386;2023-02-28T03:57:15;97906.59;;;9.33;100.00
9439;BME280;5176;42.622;25.386;2023-02-28T03:59:49;97879.59;;;9.33;100.00
9439;BME280;5176;42.622;25.386;2023-02-28T04:02:19;97898.66;;;9.35;100.00
9439;BME280;5176;42.622;25.386;2023-02-28T04:04:48;97903.50;;;9.42;100.00
9439;BME280;5176;42.622;25.386;2023-02-28T04:07:20;97895.66;;;9.42;100.00
9439;BME280;5176;42.622;25.386;2023-02-28T04:09:49;97910.84;;;9.53;100.00
9439;BME280;5176;42.622;25.386;2023-02-28T04:12:17;97915.47;;;9.48;100.00
9439;BME280;5176;42.622;25.386;2023-02-28T04:14:46;97910.97;;;9.33;100.00
9439;BME280;5176;42.622;25.386;2023-02-28T04:17:15;97907.88;;;9.24;100.00
9439;BME280;5176;42.622;25.386;2023-02-28T04:19:43;97919.31;;;9.22;100.00
9439;BME280;5176;42.622;25.386;2023-02-28T04:22:12;97926.75;;;9.31;100.00
9439;BME280;5176;42.622;25.386;2023-02-28T04:24:42;97921.94;;;9.22;100.00
9439;BME280;5176;42.622;25.386;2023-02-28T04:27:11;97930.16;;;9.14;100.00
9439;BME280;5176;42.622;25.386;2023-02-28T04:29:42;97927.63;;;9.13;100.00
9439;BME280;5176;42.622;25.386;2023-02-28T04:32:11;97923.41;;;9.10;100.00
9439;BME280;5176;42.622;25.386;2023-02-28T04:34:40;97929.38;;;9.12;100.00
9439;BME280;5176;42.622;25.386;2023-02-28T04:37:10;97926.50;;;9.18;100.00
9439;BME280;5176;42.622;25.386;2023-02-28T04:39:39;97922.03;;;9.20;100.00
9439;BME280;5176;42.622;25.386;2023-02-28T04:42:09;97926.28;;;9.23;100.00
9439;BME280;5176;42.622;25.386;2023-02-28T04:44:39;97935.31;;;9.16;100.00
9439;BME280;5176;42.622;25.386;2023-02-28T04:47:08;97941.47;;;9.15;100.00
9439;BME280;5176;42.622;25.386;2023-02-28T04:49:36;97948.53;;;9.13;100.00
9439;BME280;5176;42.622;25.386;2023-02-28T04:52:05;97933.69;;;9.13;100.00
9439;BME280;5176;42.622;25.386;2023-02-28T04:54:37;97945.22;;;9.09;100.00
9439;BME280;5176;42.622;25.386;2023-02-28T04:57:06;97938.94;;;8.94;100.00
9439;BME280;5176;42.622;25.386;2023-02-28T04:59:38;97938.84;;;8.96;100.00
9439;BME280;5176;42.622;25.386;2023-02-28T05:02:06;97936.94;;;8.99;100.00
9439;BME280;5176;42.622;25.386;2023-02-28T05:04:36;97935.25;;;8.98;100.00
9439;BME280;5176;42.622;25.386;2023-02-28T05:07:04;97939.94;;;8.92;100.00
9439;BME280;5176;42.622;25.386;2023-02-28T05:09:33;97940.84;;;8.91;100.00
9439;BME280;5176;42.622;25.386;2023-02-28T05:12:02;97929.47;;;8.92;100.00
9439;BME280;5176;42.622;25.386;2023-02-28T05:14:31;97919.00;;;8.92;100.00
9439;BME280;5176;42.622;25.386;2023-02-28T05:17:01;97933.97;;;9.07;100.00
9439;BME280;5176;42.622;25.386;2023-02-28T05:19:30;97943.19;;;8.97;100.00
9439;BME280;5176;42.622;25.386;2023-02-28T05:21:58;97941.69;;;8.91;100.00
9439;BME280;5176;42.622;25.386;2023-02-28T05:24:28;97941.63;;;8.93;100.00
9439;BME280;5176;42.622;25.386;2023-02-28T05:26:56;97898.81;;;8.77;100.00
9439;BME280;5176;42.622;25.386;2023-02-28T05:29:27;97951.94;;;8.96;100.00
9439;BME280;5176;42.622;25.386;2023-02-28T05:31:56;97965.91;;;8.95;100.00
9439;BME280;5176;42.622;25.386;2023-02-28T05:34:27;97966.84;;;8.94;100.00
9439;BME280;5176;42.622;25.386;2023-02-28T05:36:56;97961.25;;;9.01;100.00
9439;BME280;5176;42.622;25.386;2023-02-28T05:39:24;97976.94;;;9.01;100.00
9439;BME280;5176;42.622;25.386;2023-02-28T05:41:53;97973.00;;;8.93;100.00
9439;BME280;5176;42.622;25.386;2023-02-28T05:44:22;97974.75;;;8.92;100.00
9439;BME280;5176;42.622;25.386;2023-02-28T05:46:51;97996.47;;;8.94;100.00
9439;BME280;5176;42.622;25.386;2023-02-28T05:49:20;97995.56;;;8.75;100.00
9439;BME280;5176;42.622;25.386;2023-02-28T05:51:50;97998.66;;;8.85;100.00
9439;BME280;5176;42.622;25.386;2023-02-28T05:54:19;97995.13;;;8.86;100.00
9439;BME280;5176;42.622;25.386;2023-02-28T05:56:48;97992.41;;;8.87;100.00
9439;BME280;5176;42.622;25.386;2023-02-28T05:59:17;97997.81;;;8.84;100.00
9439;BME280;5176;42.622;25.386;2023-02-28T06:01:46;97937.34;;;8.53;100.00
9439;BME280;5176;42.622;25.386;2023-02-28T06:04:18;97996.16;;;8.82;100.00
9439;BME280;5176;42.622;25.386;2023-02-28T06:06:47;98005.66;;;8.84;100.00
9439;BME280;5176;42.622;25.386;2023-02-28T06:09:18;98007.25;;;8.87;100.00
9439;BME280;5176;42.622;25.386;2023-02-28T06:11:47;97976.94;;;8.64;100.00
9439;BME280;5176;42.622;25.386;2023-02-28T06:14:18;97987.84;;;8.53;100.00
9439;BME280;5176;42.622;25.386;2023-02-28T06:16:47;97984.22;;;8.56;100.00
9439;BME280;5176;42.622;25.386;2023-02-28T06:19:16;98007.81;;;8.74;100.00
9439;BME280;5176;42.622;25.386;2023-02-28T06:21:49;98011.34;;;8.73;100.00
9439;BME280;5176;42.622;25.386;2023-02-28T06:24:21;98012.91;;;8.78;100.00
9439;BME280;5176;42.622;25.386;2023-02-28T06:26:51;98009.38;;;8.79;100.00
9439;BME280;5176;42.622;25.386;2023-02-28T06:29:20;98002.72;;;8.71;100.00
9439;BME280;5176;42.622;25.386;2023-02-28T06:31:48;98011.41;;;8.72;100.00
9439;BME280;5176;42.622;25.386;2023-02-28T06:34:17;98016.38;;;8.78;100.00
9439;BME280;5176;42.622;25.386;2023-02-28T06:36:46;98016.63;;;8.72;100.00
9439;BME280;5176;42.622;25.386;2023-02-28T06:39:15;98026.06;;;8.76;100.00
9439;BME280;5176;42.622;25.386;2023-02-28T06:41:46;98027.19;;;8.89;100.00
9439;BME280;5176;42.622;25.386;2023-02-28T06:44:17;98021.56;;;8.98;100.00
9439;BME280;5176;42.622;25.386;2023-02-28T06:46:46;98014.13;;;9.08;100.00
9439;BME280;5176;42.622;25.386;2023-02-28T06:49:15;98018.25;;;9.14;100.00
9439;BME280;5176;42.622;25.386;2023-02-28T06:51:45;97999.25;;;9.10;100.00
9439;BME280;5176;42.622;25.386;2023-02-28T06:54:15;98008.28;;;9.22;100.00
9439;BME280;5176;42.622;25.386;2023-02-28T06:56:43;98017.19;;;9.18;100.00
9439;BME280;5176;42.622;25.386;2023-02-28T06:59:15;98016.84;;;9.25;100.00
9439;BME280;5176;42.622;25.386;2023-02-28T07:01:44;98023.41;;;9.34;100.00
9439;BME280;5176;42.622;25.386;2023-02-28T07:04:13;98023.50;;;9.33;100.00
9439;BME280;5176;42.622;25.386;2023-02-28T07:06:42;97961.34;;;9.00;100.00
9439;BME280;5176;42.622;25.386;2023-02-28T07:09:11;98029.66;;;9.32;100.00
9439;BME280;5176;42.622;25.386;2023-02-28T07:11:40;98012.09;;;9.15;100.00
9439;BME280;5176;42.622;25.386;2023-02-28T07:14:09;98035.06;;;9.27;100.00
9439;BME280;5176;42.622;25.386;2023-02-28T07:16:40;98027.78;;;9.34;100.00
9439;BME280;5176;42.622;25.386;2023-02-28T07:19:09;98029.00;;;9.45;100.00
9439;BME280;5176;42.622;25.386;2023-02-28T07:21:37;98026.81;;;9.36;100.00
9439;BME280;5176;42.622;25.386;2023-02-28T07:24:06;98038.63;;;9.45;100.00
9439;BME280;5176;42.622;25.386;2023-02-28T07:26:35;98041.72;;;9.34;100.00
9439;BME280;5176;42.622;25.386;2023-02-28T07:29:04;98034.38;;;9.23;100.00
9439;BME280;5176;42.622;25.386;2023-02-28T07:31:33;98035.00;;;9.28;100.00
9439;BME280;5176;42.622;25.386;2023-02-28T07:34:04;98027.16;;;9.28;100.00
9439;BME280;5176;42.622;25.386;2023-02-28T07:36:33;98035.72;;;9.32;100.00
9439;BME280;5176;42.622;25.386;2023-02-28T07:39:02;98040.16;;;9.49;100.00
9439;BME280;5176;42.622;25.386;2023-02-28T07:41:31;98044.06;;;9.40;100.00
9439;BME280;5176;42.622;25.386;2023-02-28T07:44:01;98029.47;;;9.16;100.00
9439;BME280;5176;42.622;25.386;2023-02-28T07:46:30;98049.94;;;9.26;100.00
9439;BME280;5176;42.622;25.386;2023-02-28T07:49:04;98048.66;;;9.35;100.00
9439;BME280;5176;42.622;25.386;2023-02-28T07:51:33;98050.50;;;9.33;100.00
9439;BME280;5176;42.622;25.386;2023-02-28T07:54:02;98047.19;;;9.30;100.00
9439;BME280;5176;42.622;25.386;2023-02-28T07:56:32;98053.84;;;9.37;100.00
9439;BME280;5176;42.622;25.386;2023-02-28T07:59:02;98047.75;;;9.36;100.00
9439;BME280;5176;42.622;25.386;2023-02-28T08:01:31;98037.56;;;9.30;100.00
9439;BME280;5176;42.622;25.386;2023-02-28T08:04:01;98035.00;;;9.28;100.00
9439;BME280;5176;42.622;25.386;2023-02-28T08:06:32;97988.97;;;9.06;100.00
9439;BME280;5176;42.622;25.386;2023-02-28T08:09:02;98043.00;;;9.44;100.00
9439;BME280;5176;42.622;25.386;2023-02-28T08:11:31;98046.56;;;9.43;100.00
9439;BME280;5176;42.622;25.386;2023-02-28T08:14:00;98052.28;;;9.51;100.00
9439;BME280;5176;42.622;25.386;2023-02-28T08:16:29;98055.09;;;9.47;100.00
9439;BME280;5176;42.622;25.386;2023-02-28T08:18:57;98029.00;;;9.26;100.00
9439;BME280;5176;42.622;25.386;2023-02-28T08:21:26;98053.13;;;9.33;100.00
9439;BME280;5176;42.622;25.386;2023-02-28T08:23:56;98035.59;;;9.16;100.00
9439;BME280;5176;42.622;25.386;2023-02-28T08:26:25;98054.47;;;9.23;100.00
9439;BME280;5176;42.622;25.386;2023-02-28T08:28:55;98054.50;;;9.21;100.00
9439;BME280;5176;42.622;25.386;2023-02-28T08:31:23;98037.47;;;9.13;100.00
9439;BME280;5176;42.622;25.386;2023-02-28T08:33:52;98050.72;;;9.10;100.00
9439;BME280;5176;42.622;25.386;2023-02-28T08:36:24;98049.72;;;9.12;100.00
9439;BME280;5176;42.622;25.386;2023-02-28T08:38:53;98049.06;;;9.07;100.00
9439;BME280;5176;42.622;25.386;2023-02-28T08:41:24;98045.06;;;9.19;100.00
9439;BME280;5176;42.622;25.386;2023-02-28T08:43:52;97979.66;;;8.61;100.00
9439;BME280;5176;42.622;25.386;2023-02-28T08:46:22;98061.44;;;9.22;100.00
9439;BME280;5176;42.622;25.386;2023-02-28T08:48:52;98026.41;;;8.87;100.00
9439;BME280;5176;42.622;25.386;2023-02-28T08:51:22;98071.31;;;9.16;100.00
9439;BME280;5176;42.622;25.386;2023-02-28T08:53:53;98073.19;;;9.14;100.00
9439;BME280;5176;42.622;25.386;2023-02-28T08:56:25;98073.75;;;9.20;100.00
9439;BME280;5176;42.622;25.386;2023-02-28T08:58:56;98072.47;;;9.10;100.00
9439;BME280;5176;42.622;25.386;2023-02-28T09:01:27;98070.16;;;9.23;100.00
9439;BME280;5176;42.622;25.386;2023-02-28T09:03:57;98074.41;;;9.25;100.00
9439;BME280;5176;42.622;25.386;2023-02-28T09:06:27;98072.78;;;9.23;100.00
9439;BME280;5176;42.622;25.386;2023-02-28T09:08:58;98077.72;;;9.29;100.00
9439;BME280;5176;42.622;25.386;2023-02-28T09:11:31;98075.63;;;9.37;100.00
9439;BME280;5176;42.622;25.386;2023-02-28T09:14:02;98075.38;;;9.42;100.00
9439;BME280;5176;42.622;25.386;2023-02-28T09:16:32;98077.81;;;9.46;100.00
9439;BME280;5176;42.622;25.386;2023-02-28T09:19:02;98080.84;;;9.56;100.00
9439;BME280;5176;42.622;25.386;2023-02-28T09:21:31;98069.50;;;9.55;100.00
9439;BME280;5176;42.622;25.386;2023-02-28T09:24:00;98050.13;;;9.41;100.00
9439;BME280;5176;42.622;25.386;2023-02-28T09:26:30;98086.03;;;9.58;100.00
9439;BME280;5176;42.622;25.386;2023-02-28T09:28:59;98083.31;;;9.59;100.00
9439;BME280;5176;42.622;25.386;2023-02-28T09:31:29;98076.75;;;9.50;100.00
9439;BME280;5176;42.622;25.386;2023-02-28T09:33:58;98079.50;;;9.47;100.00
9439;BME280;5176;42.622;25.386;2023-02-28T09:36:28;98057.31;;;9.37;100.00
9439;BME280;5176;42.622;25.386;2023-02-28T09:38:57;98071.44;;;9.52;100.00
9439;BME280;5176;42.622;25.386;2023-02-28T09:41:27;98080.91;;;9.54;100.00
9439;BME280;5176;42.622;25.386;2023-02-28T09:44:05;98076.75;;;9.50;100.00
9439;BME280;5176;42.622;25.386;2023-02-28T09:46:38;98070.94;;;9.44;100.00
9439;BME280;5176;42.622;25.386;2023-02-28T09:49:14;98077.97;;;9.43;100.00
9439;BME280;5176;42.622;25.386;2023-02-28T09:51:49;98069.19;;;9.44;100.00
9439;BME280;5176;42.622;25.386;2023-02-28T09:54:21;98026.38;;;9.26;100.00
9439;BME280;5176;42.622;25.386;2023-02-28T09:56:53;98065.00;;;9.59;100.00
9439;BME280;5176;42.622;25.386;2023-02-28T09:59:36;98069.50;;;9.55;100.00
9439;BME280;5176;42.622;25.386;2023-02-28T10:02:20;98067.25;;;9.67;100.00
9439;BME280;5176;42.622;25.386;2023-02-28T10:04:53;98047.53;;;9.60;100.00
9439;BME280;5176;42.622;25.386;2023-02-28T10:07:37;98051.44;;;9.51;100.00
9439;BME280;5176;42.622;25.386;2023-02-28T10:10:18;98056.50;;;9.54;100.00
9439;BME280;5176;42.622;25.386;2023-02-28T10:12:52;98057.50;;;9.51;100.00
9439;BME280;5176;42.622;25.386;2023-02-28T10:15:26;98036.22;;;9.40;100.00
9439;BME280;5176;42.622;25.386;2023-02-28T10:18:00;98020.72;;;9.36;100.00
9439;BME280;5176;42.622;25.386;2023-02-28T10:20:33;98040.59;;;9.59;100.00
9439;BME280;5176;42.622;25.386;2023-02-28T10:23:10;98041.91;;;9.67;100.00
9439;BME280;5176;42.622;25.386;2023-02-28T10:25:45;98037.06;;;9.60;100.00
9439;BME280;5176;42.622;25.386;2023-02-28T10:28:17;98030.25;;;9.55;100.00
9439;BME280;5176;42.622;25.386;2023-02-28T10:30:50;97994.81;;;9.48;100.00
9439;BME280;5176;42.622;25.386;2023-02-28T10:33:23;98025.94;;;9.54;100.00
9439;BME280;5176;42.622;25.386;2023-02-28T10:35:52;98018.63;;;9.44;100.00
9439;BME280;5176;42.622;25.386;2023-02-28T10:38:24;98017.59;;;9.46;100.00
9439;BME280;5176;42.622;25.386;2023-02-28T10:41:04;98007.13;;;9.46;100.00
9439;BME280;5176;42.622;25.386;2023-02-28T10:43:33;97998.44;;;9.46;100.00
9439;BME280;5176;42.622;25.386;2023-02-28T10:46:10;97979.66;;;9.38;100.00
9439;BME280;5176;42.622;25.386;2023-02-28T10:48:44;97994.81;;;9.48;100.00
9439;BME280;5176;42.622;25.386;2023-02-28T10:51:16;97994.53;;;9.54;100.00
9439;BME280;5176;42.622;25.386;2023-02-28T10:53:49;97987.53;;;9.55;100.00
9439;BME280;5176;42.622;25.386;2023-02-28T10:56:19;97985.63;;;9.59;100.00
9439;BME280;5176;42.622;25.386;2023-02-28T10:58:52;97973.47;;;9.58;100.00
9439;BME280;5176;42.622;25.386;2023-02-28T11:01:27;97970.31;;;9.68;100.00
9439;BME280;5176;42.622;25.386;2023-02-28T11:04:03;97966.88;;;9.85;100.00
9439;BME280;5176;42.622;25.386;2023-02-28T11:06:33;97973.66;;;9.89;100.00
9439;BME280;5176;42.622;25.386;2023-02-28T11:09:05;97969.75;;;9.98;100.00
9439;BME280;5176;42.622;25.386;2023-02-28T11:11:43;97963.28;;;10.05;100.00
9439;BME280;5176;42.622;25.386;2023-02-28T11:14:19;97969.44;;;10.04;100.00
9439;BME280;5176;42.622;25.386;2023-02-28T11:16:52;97965.59;;;10.11;100.00
9439;BME280;5176;42.622;25.386;2023-02-28T11:19:25;97932.53;;;9.91;100.00
9439;BME280;5176;42.622;25.386;2023-02-28T11:21:57;97944.06;;;9.87;100.00
9439;BME280;5176;42.622;25.386;2023-02-28T11:24:29;97952.69;;;9.89;100.00
9439;BME280;5176;42.622;25.386;2023-02-28T11:26:59;97961.81;;;9.99;100.00
9439;BME280;5176;42.622;25.386;2023-02-28T11:29:30;97944.63;;;9.94;100.00
9439;BME280;5176;42.622;25.386;2023-02-28T11:32:18;97950.94;;;10.07;100.00
9439;BME280;5176;42.622;25.386;2023-02-28T11:35:00;97965.03;;;10.04;100.00
9439;BME280;5176;42.622;25.386;2023-02-28T11:37:31;97957.03;;;9.90;100.00
9439;BME280;5176;42.622;25.386;2023-02-28T11:40:00;97963.13;;;9.91;100.00
9439;BME280;5176;42.622;25.386;2023-02-28T11:42:50;97949.31;;;9.87;100.00
9439;BME280;5176;42.622;25.386;2023-02-28T11:45:31;97953.50;;;9.91;100.00
9439;BME280;5176;42.622;25.386;2023-02-28T11:48:13;97950.69;;;9.94;100.00
9439;BME280;5176;42.622;25.386;2023-02-28T11:50:54;97889.97;;;9.34;100.00
9439;BME280;5176;42.622;25.386;2023-02-28T11:56:24;97938.84;;;9.87;100.00
9439;BME280;5176;42.622;25.386;2023-02-28T11:59:04;97932.97;;;9.82;100.00
9439;BME280;5176;42.622;25.386;2023-02-28T12:01:58;97934.53;;;9.86;100.00
9439;BME280;5176;42.622;25.386;2023-02-28T12:04:40;97944.78;;;9.91;99.96
9439;BME280;5176;42.622;25.386;2023-02-28T12:07:20;97943.31;;;9.85;100.00
9439;BME280;5176;42.622;25.386;2023-02-28T12:10:02;97948.38;;;9.88;99.72
9439;BME280;5176;42.622;25.386;2023-02-28T12:12:39;97928.81;;;9.61;100.00
9439;BME280;5176;42.622;25.386;2023-02-28T12:15:40;97957.00;;;9.73;99.90
9439;BME280;5176;42.622;25.386;2023-02-28T12:18:29;97941.88;;;9.61;100.00
9439;BME280;5176;42.622;25.386;2023-02-28T12:21:13;97951.59;;;9.76;100.00
9439;BME280;5176;42.622;25.386;2023-02-28T12:23:58;97950.16;;;9.70;100.00
9439;BME280;5176;42.622;25.386;2023-02-28T12:26:36;97897.84;;;9.51;100.00
9439;BME280;5176;42.622;25.386;2023-02-28T12:29:12;97948.75;;;9.80;100.00
9439;BME280;5176;42.622;25.386;2023-02-28T12:31:47;97950.94;;;9.72;100.00
9439;BME280;5176;42.622;25.386;2023-02-28T12:34:20;97947.59;;;9.51;100.00
9439;BME280;5176;42.622;25.386;2023-02-28T12:36:56;97961.94;;;9.43;100.00
9439;BME280;5176;42.622;25.386;2023-02-28T12:39:30;97951.47;;;9.43;100.00
9439;BME280;5176;42.622;25.386;2023-02-28T12:42:03;97945.53;;;9.39;100.00
9439;BME280;5176;42.622;25.386;2023-02-28T12:44:36;97957.31;;;9.31;100.00
9439;BME280;5176;42.622;25.386;2023-02-28T12:47:12;97948.34;;;9.17;100.00
9439;BME280;5176;42.622;25.386;2023-02-28T12:49:45;97955.47;;;9.33;100.00
9439;BME280;5176;42.622;25.386;2023-02-28T12:52:25;97953.47;;;9.38;100.00
9439;BME280;5176;42.622;25.386;2023-02-28T12:55:02;97950.50;;;9.45;100.00
9439;BME280;5176;42.622;25.386;2023-02-28T12:57:35;97956.19;;;9.53;100.00
9439;BME280;5176;42.622;25.386;2023-02-28T13:00:13;97956.06;;;9.57;100.00
9439;BME280;5176;42.622;25.386;2023-02-28T13:03:18;97956.75;;;9.60;100.00
9439;BME280;5176;42.622;25.386;2023-02-28T13:06:05;97959.25;;;9.63;100.00
9439;BME280;5176;42.622;25.386;2023-02-28T13:09:06;97947.00;;;9.64;100.00
9439;BME280;5176;42.622;25.386;2023-02-28T13:11:42;97940.38;;;9.57;100.00
9439;BME280;5176;42.622;25.386;2023-02-28T13:14:26;97948.50;;;9.50;100.00
9439;BME280;5176;42.622;25.386;2023-02-28T13:17:01;97932.84;;;9.49;100.00
9439;BME280;5176;42.622;25.386;2023-02-28T13:19:31;97905.75;;;9.33;100.00
9439;BME280;5176;42.622;25.386;2023-02-28T13:21:59;97906.88;;;9.27;100.00
9439;BME280;5176;42.622;25.386;2023-02-28T13:24:48;97936.19;;;9.52;100.00
9439;BME280;5176;42.622;25.386;2023-02-28T13:27:34;97944.81;;;9.54;100.00
9439;BME280;5176;42.622;25.386;2023-02-28T13:33:24;97948.22;;;9.74;100.00
9439;BME280;5176;42.622;25.386;2023-02-28T13:36:25;97933.59;;;9.70;100.00
9439;BME280;5176;42.622;25.386;2023-02-28T13:38:57;97932.91;;;9.66;100.00
9439;BME280;5176;42.622;25.386;2023-02-28T13:41:46;97933.66;;;9.68;100.00
9439;BME280;5176;42.622;25.386;2023-02-28T13:44:17;97935.03;;;9.75;100.00
9439;BME280;5176;42.622;25.386;2023-02-28T13:47:27;97937.19;;;9.67;100.00